sensor_id;sensor_type;location;lat;lon;timestamp;temperature;humidity
35645;DHT22;21764;52.042;6.830;2022-11-12T00:38:33;5.50;99.90
35645;DHT22;21764;52.042;6.830;2022-11-12T07:37:13;11.00;99.90
35645;DHT22;21764;52.042;6.830;2022-11-12T07:42:14;12.70;99.90
35645;DHT22;21764;52.042;6.830;2022-11-12T07:47:14;13.20;99.90
35645;DHT22;21764;52.042;6.830;2022-11-12T07:52:15;14.00;99.90
35645;DHT22;21764;52.042;6.830;2022-11-12T07:57:15;14.80;99.90
35645;DHT22;21764;52.042;6.830;2022-11-12T08:02:16;15.50;99.90
35645;DHT22;21764;52.042;6.830;2022-11-12T08:07:17;15.90;99.90
35645;DHT22;21764;52.042;6.830;2022-11-12T08:12:17;16.20;99.90
35645;DHT22;21764;52.042;6.830;2022-11-12T08:17:18;16.30;99.90
35645;DHT22;21764;52.042;6.830;2022-11-12T08:22:21;16.60;99.80
35645;DHT22;21764;52.042;6.830;2022-11-12T08:27:21;17.30;98.20
35645;DHT22;21764;52.042;6.830;2022-11-12T08:32:22;16.80;98.30
35645;DHT22;21764;52.042;6.830;2022-11-12T08:37:23;17.00;97.90
35645;DHT22;21764;52.042;6.830;2022-11-12T08:42:23;17.80;96.80
35645;DHT22;21764;52.042;6.830;2022-11-12T08:47:24;18.10;95.70
35645;DHT22;21764;52.042;6.830;2022-11-12T08:52:25;18.70;95.10
35645;DHT22;21764;52.042;6.830;2022-11-12T08:57:26;18.40;95.30
35645;DHT22;21764;52.042;6.830;2022-11-12T09:02:26;17.50;94.90
35645;DHT22;21764;52.042;6.830;2022-11-12T09:07:27;16.80;96.30
35645;DHT22;21764;52.042;6.830;2022-11-12T09:12:28;16.50;96.70
35645;DHT22;21764;52.042;6.830;2022-11-12T09:17:28;16.20;97.20
35645;DHT22;21764;52.042;6.830;2022-11-12T09:22:30;16.30;97.10
35645;DHT22;21764;52.042;6.830;2022-11-12T09:27:32;17.10;96.40
35645;DHT22;21764;52.042;6.830;2022-11-12T09:32:33;18.00;95.90
35645;DHT22;21764;52.042;6.830;2022-11-12T09:37:36;17.90;95.00
35645;DHT22;21764;52.042;6.830;2022-11-12T09:42:37;18.10;94.80
35645;DHT22;21764;52.042;6.830;2022-11-12T09:47:44;17.70;95.00
35645;DHT22;21764;52.042;6.830;2022-11-12T09:52:50;18.50;93.70
35645;DHT22;21764;52.042;6.830;2022-11-12T09:57:54;18.80;94.30
35645;DHT22;21764;52.042;6.830;2022-11-12T10:03:00;18.70;93.30
35645;DHT22;21764;52.042;6.830;2022-11-12T10:14:04;18.70;93.40
35645;DHT22;21764;52.042;6.830;2022-11-12T10:24:45;19.00;92.90
35645;DHT22;21764;52.042;6.830;2022-11-12T10:30:21;19.80;91.70
35645;DHT22;21764;52.042;6.830;2022-11-12T10:35:23;19.20;92.10
35645;DHT22;21764;52.042;6.830;2022-11-12T10:40:32;18.90;92.50
35645;DHT22;21764;52.042;6.830;2022-11-12T10:45:33;18.40;93.10
35645;DHT22;21764;52.042;6.830;2022-11-12T10:50:36;18.40;92.80
35645;DHT22;21764;52.042;6.830;2022-11-12T10:55:58;18.10;93.70
35645;DHT22;21764;52.042;6.830;2022-11-12T11:01:15;18.30;92.80
35645;DHT22;21764;52.042;6.830;2022-11-12T11:06:19;17.60;93.40
35645;DHT22;21764;52.042;6.830;2022-11-12T11:11:28;17.40;93.00
35645;DHT22;21764;52.042;6.830;2022-11-12T11:16:29;16.90;93.90
35645;DHT22;21764;52.042;6.830;2022-11-12T11:27:24;16.10;96.70
35645;DHT22;21764;52.042;6.830;2022-11-12T11:33:03;15.70;96.50
35645;DHT22;21764;52.042;6.830;2022-11-12T11:38:34;15.40;96.60
35645;DHT22;21764;52.042;6.830;2022-11-12T12:00:19;15.30;98.20
35645;DHT22;21764;52.042;6.830;2022-11-12T12:05:41;15.20;99.00
35645;DHT22;21764;52.042;6.830;2022-11-12T12:10:54;15.00;99.70
35645;DHT22;21764;52.042;6.830;2022-11-12T12:16:04;14.90;99.90
35645;DHT22;21764;52.042;6.830;2022-11-12T12:26:39;14.80;99.90
35645;DHT22;21764;52.042;6.830;2022-11-12T12:31:46;14.90;99.90
35645;DHT22;21764;52.042;6.830;2022-11-12T12:36:53;14.80;99.90
35645;DHT22;21764;52.042;6.830;2022-11-12T12:42:03;14.80;99.90
35645;DHT22;21764;52.042;6.830;2022-11-12T12:47:09;14.80;99.90
35645;DHT22;21764;52.042;6.830;2022-11-12T12:52:13;14.70;99.90
35645;DHT22;21764;52.042;6.830;2022-11-12T12:57:43;14.80;99.90
35645;DHT22;21764;52.042;6.830;2022-11-12T13:02:44;14.80;99.90
35645;DHT22;21764;52.042;6.830;2022-11-12T13:07:47;14.90;99.60
35645;DHT22;21764;52.042;6.830;2022-11-12T13:18:08;15.00;99.90
35645;DHT22;21764;52.042;6.830;2022-11-12T13:23:40;15.00;99.90
35645;DHT22;21764;52.042;6.830;2022-11-12T13:28:31;15.00;99.50
35645;DHT22;21764;52.042;6.830;2022-11-12T13:33:33;14.90;99.90
35645;DHT22;21764;52.042;6.830;2022-11-12T13:38:35;14.90;99.90
35645;DHT22;21764;52.042;6.830;2022-11-12T13:43:41;14.80;99.90
35645;DHT22;21764;52.042;6.830;2022-11-12T13:48:57;14.90;99.90
35645;DHT22;21764;52.042;6.830;2022-11-12T13:53:59;14.80;99.90
35645;DHT22;21764;52.042;6.830;2022-11-12T13:59:14;14.80;99.90
35645;DHT22;21764;52.042;6.830;2022-11-12T14:04:20;14.70;99.90
35645;DHT22;21764;52.042;6.830;2022-11-12T14:09:34;14.70;99.90
35645;DHT22;21764;52.042;6.830;2022-11-12T14:20:27;14.70;99.90
35645;DHT22;21764;52.042;6.830;2022-11-12T14:25:31;14.60;99.90
35645;DHT22;21764;52.042;6.830;2022-11-12T14:30:32;14.50;99.90
35645;DHT22;21764;52.042;6.830;2022-11-12T14:35:35;14.40;99.90
35645;DHT22;21764;52.042;6.830;2022-11-12T14:40:49;14.40;99.90
35645;DHT22;21764;52.042;6.830;2022-11-12T14:45:52;14.30;99.90
35645;DHT22;21764;52.042;6.830;2022-11-12T14:51:05;14.30;99.90
35645;DHT22;21764;52.042;6.830;2022-11-12T14:56:10;14.10;99.90
35645;DHT22;21764;52.042;6.830;2022-11-12T15:01:19;14.00;99.90
35645;DHT22;21764;52.042;6.830;2022-11-12T15:06:31;13.80;99.90
35645;DHT22;21764;52.042;6.830;2022-11-12T15:11:45;13.70;99.90
35645;DHT22;21764;52.042;6.830;2022-11-12T15:16:46;13.50;99.90
35645;DHT22;21764;52.042;6.830;2022-11-12T15:21:53;13.50;99.90
35645;DHT22;21764;52.042;6.830;2022-11-12T15:26:57;13.30;99.90
35645;DHT22;21764;52.042;6.830;2022-11-12T15:32:25;12.90;99.90
35645;DHT22;21764;52.042;6.830;2022-11-12T15:37:25;12.70;99.90
35645;DHT22;21764;52.042;6.830;2022-11-12T15:42:35;12.50;99.90
35645;DHT22;21764;52.042;6.830;2022-11-12T15:47:36;12.30;99.90
35645;DHT22;21764;52.042;6.830;2022-11-12T15:52:37;12.30;99.90
35645;DHT22;21764;52.042;6.830;2022-11-12T15:57:41;12.10;99.90
35645;DHT22;21764;52.042;6.830;2022-11-12T16:02:43;12.00;99.90
35645;DHT22;21764;52.042;6.830;2022-11-12T16:07:45;11.80;99.90
35645;DHT22;21764;52.042;6.830;2022-11-12T16:12:46;11.40;99.90
35645;DHT22;21764;52.042;6.830;2022-11-12T16:17:47;11.20;99.90
35645;DHT22;21764;52.042;6.830;2022-11-12T16:22:49;10.90;99.90
35645;DHT22;21764;52.042;6.830;2022-11-12T16:27:50;11.10;99.90
35645;DHT22;21764;52.042;6.830;2022-11-12T16:32:50;11.30;99.90
35645;DHT22;21764;52.042;6.830;2022-11-12T16:37:54;11.10;99.90
35645;DHT22;21764;52.042;6.830;2022-11-12T16:42:55;10.80;99.90
35645;DHT22;21764;52.042;6.830;2022-11-12T16:47:56;10.50;99.90
35645;DHT22;21764;52.042;6.830;2022-11-12T16:52:57;10.30;99.90
35645;DHT22;21764;52.042;6.830;2022-11-12T16:57:58;10.10;99.90
35645;DHT22;21764;52.042;6.830;2022-11-12T17:03:01;10.00;99.90
35645;DHT22;21764;52.042;6.830;2022-11-12T17:08:03;9.90;99.90
35645;DHT22;21764;52.042;6.830;2022-11-12T17:13:04;10.10;99.90
35645;DHT22;21764;52.042;6.830;2022-11-12T17:18:04;10.00;99.90
35645;DHT22;21764;52.042;6.830;2022-11-12T17:23:06;9.90;99.90
35645;DHT22;21764;52.042;6.830;2022-11-12T17:28:07;9.80;99.90
35645;DHT22;21764;52.042;6.830;2022-11-12T17:33:08;9.80;99.90
35645;DHT22;21764;52.042;6.830;2022-11-12T17:38:08;9.70;99.90
35645;DHT22;21764;52.042;6.830;2022-11-12T17:43:09;9.60;99.90
35645;DHT22;21764;52.042;6.830;2022-11-12T17:48:10;9.40;99.90
35645;DHT22;21764;52.042;6.830;2022-11-12T17:53:10;9.30;99.90
35645;DHT22;21764;52.042;6.830;2022-11-12T17:58:12;9.30;99.90
35645;DHT22;21764;52.042;6.830;2022-11-12T18:03:13;9.30;99.90
35645;DHT22;21764;52.042;6.830;2022-11-12T18:08:14;9.30;99.90
35645;DHT22;21764;52.042;6.830;2022-11-12T18:13:15;9.20;99.90
35645;DHT22;21764;52.042;6.830;2022-11-12T18:18:16;9.20;99.90
35645;DHT22;21764;52.042;6.830;2022-11-12T18:23:18;9.40;99.90
35645;DHT22;21764;52.042;6.830;2022-11-12T18:28:18;9.30;99.90
35645;DHT22;21764;52.042;6.830;2022-11-12T18:33:19;9.20;99.90
35645;DHT22;21764;52.042;6.830;2022-11-12T18:38:20;9.20;99.90
35645;DHT22;21764;52.042;6.830;2022-11-12T18:43:21;9.30;99.90
35645;DHT22;21764;52.042;6.830;2022-11-12T18:48:21;9.30;99.90
35645;DHT22;21764;52.042;6.830;2022-11-12T18:53:22;9.20;99.90
35645;DHT22;21764;52.042;6.830;2022-11-12T18:58:23;9.20;99.90
35645;DHT22;21764;52.042;6.830;2022-11-12T19:03:24;9.10;99.90
35645;DHT22;21764;52.042;6.830;2022-11-12T19:08:24;9.00;99.90
35645;DHT22;21764;52.042;6.830;2022-11-12T19:13:26;9.00;99.90
35645;DHT22;21764;52.042;6.830;2022-11-12T19:18:27;9.10;99.90
35645;DHT22;21764;52.042;6.830;2022-11-12T19:23:27;9.10;99.90
35645;DHT22;21764;52.042;6.830;2022-11-12T19:28:28;9.00;99.90
35645;DHT22;21764;52.042;6.830;2022-11-12T19:33:33;8.90;99.90
35645;DHT22;21764;52.042;6.830;2022-11-12T19:44:13;8.70;99.90
35645;DHT22;21764;52.042;6.830;2022-11-12T19:49:14;8.60;99.90
35645;DHT22;21764;52.042;6.830;2022-11-12T19:54:15;8.70;99.90
35645;DHT22;21764;52.042;6.830;2022-11-12T19:59:17;8.70;99.90
35645;DHT22;21764;52.042;6.830;2022-11-12T20:04:17;8.70;99.90
35645;DHT22;21764;52.042;6.830;2022-11-12T20:09:18;8.70;99.90
35645;DHT22;21764;52.042;6.830;2022-11-12T20:14:19;8.70;99.90
35645;DHT22;21764;52.042;6.830;2022-11-12T20:19:20;8.60;99.90
35645;DHT22;21764;52.042;6.830;2022-11-12T20:24:20;8.60;99.90
35645;DHT22;21764;52.042;6.830;2022-11-12T20:29:21;8.70;99.90
35645;DHT22;21764;52.042;6.830;2022-11-12T20:34:22;8.70;99.90
35645;DHT22;21764;52.042;6.830;2022-11-12T20:39:22;8.70;99.90
35645;DHT22;21764;52.042;6.830;2022-11-12T20:44:23;8.60;99.90
35645;DHT22;21764;52.042;6.830;2022-11-12T20:49:24;8.60;99.90
35645;DHT22;21764;52.042;6.830;2022-11-12T20:54:24;8.50;99.90
35645;DHT22;21764;52.042;6.830;2022-11-12T20:59:28;8.50;99.90
35645;DHT22;21764;52.042;6.830;2022-11-12T21:04:29;8.30;99.90
35645;DHT22;21764;52.042;6.830;2022-11-12T21:09:36;8.40;99.90
35645;DHT22;21764;52.042;6.830;2022-11-12T21:14:42;8.40;99.90
35645;DHT22;21764;52.042;6.830;2022-11-12T21:19:45;8.30;99.90
35645;DHT22;21764;52.042;6.830;2022-11-12T21:24:53;8.20;99.90
35645;DHT22;21764;52.042;6.830;2022-11-12T21:29:53;8.10;99.90
35645;DHT22;21764;52.042;6.830;2022-11-12T21:34:57;8.10;99.90
35645;DHT22;21764;52.042;6.830;2022-11-12T21:40:01;8.10;99.90
35645;DHT22;21764;52.042;6.830;2022-11-12T22:31:01;8.10;99.90
35645;DHT22;21764;52.042;6.830;2022-11-12T22:54:05;7.80;99.90
35645;DHT22;21764;52.042;6.830;2022-11-12T23:23:18;7.50;99.90
35645;DHT22;21764;52.042;6.830;2022-11-12T23:35:09;7.40;99.90
